sensor_id;sensor_type;location;lat;lon;timestamp;pressure;altitude;pressure_sealevel;temperature;humidity
38612;BME280;24368;52.156;20.788;2023-06-05T00:04:10;101097.16;;;11.31;74.79
38612;BME280;24368;52.156;20.788;2023-06-05T00:09:11;101098.84;;;11.47;74.62
38612;BME280;24368;52.156;20.788;2023-06-05T00:14:14;101097.98;;;11.51;74.79
38612;BME280;24368;52.156;20.788;2023-06-05T00:19:16;101097.31;;;11.48;74.76
38612;BME280;24368;52.156;20.788;2023-06-05T00:24:17;101099.34;;;11.44;75.38
38612;BME280;24368;52.156;20.788;2023-06-05T00:29:18;101096.30;;;11.33;75.38
38612;BME280;24368;52.156;20.788;2023-06-05T00:34:19;101096.56;;;10.97;75.98
38612;BME280;24368;52.156;20.788;2023-06-05T00:39:20;101091.23;;;10.82;77.35
38612;BME280;24368;52.156;20.788;2023-06-05T00:44:21;101094.17;;;10.86;77.81
38612;BME280;24368;52.156;20.788;2023-06-05T00:49:22;101096.41;;;10.87;77.34
38612;BME280;24368;52.156;20.788;2023-06-05T00:54:23;101094.04;;;10.68;77.33
38612;BME280;24368;52.156;20.788;2023-06-05T00:59:26;101093.23;;;10.35;77.95
38612;BME280;24368;52.156;20.788;2023-06-05T01:04:28;101090.95;;;10.43;78.55
38612;BME280;24368;52.156;20.788;2023-06-05T01:09:29;101089.38;;;10.81;76.96
38612;BME280;24368;52.156;20.788;2023-06-05T01:14:33;101089.78;;;10.78;76.59
38612;BME280;24368;52.156;20.788;2023-06-05T01:19:35;101089.55;;;10.59;78.13
38612;BME280;24368;52.156;20.788;2023-06-05T01:24:40;101087.55;;;10.44;79.57
38612;BME280;24368;52.156;20.788;2023-06-05T01:30:04;101086.98;;;10.66;79.07
38612;BME280;24368;52.156;20.788;2023-06-05T01:35:07;101087.50;;;10.66;79.33
38612;BME280;24368;52.156;20.788;2023-06-05T01:40:12;101090.41;;;10.49;80.03
38612;BME280;24368;52.156;20.788;2023-06-05T01:45:15;101089.77;;;10.38;80.40
38612;BME280;24368;52.156;20.788;2023-06-05T01:50:18;101088.75;;;10.30;80.09
38612;BME280;24368;52.156;20.788;2023-06-05T01:55:20;101087.23;;;10.33;81.38
38612;BME280;24368;52.156;20.788;2023-06-05T02:00:24;101084.71;;;10.50;80.32
38612;BME280;24368;52.156;20.788;2023-06-05T02:05:26;101084.55;;;10.56;80.37
38612;BME280;24368;52.156;20.788;2023-06-05T02:10:30;101081.64;;;10.51;81.15
38612;BME280;24368;52.156;20.788;2023-06-05T02:15:32;101084.15;;;10.44;81.65
38612;BME280;24368;52.156;20.788;2023-06-05T02:20:34;101091.62;;;10.17;81.92
38612;BME280;24368;52.156;20.788;2023-06-05T02:25:37;101086.49;;;10.13;82.93
38612;BME280;24368;52.156;20.788;2023-06-05T02:30:38;101089.22;;;10.31;82.53
38612;BME280;24368;52.156;20.788;2023-06-05T02:35:39;101087.94;;;10.09;82.68
38612;BME280;24368;52.156;20.788;2023-06-05T02:40:40;101086.11;;;9.96;84.15
38612;BME280;24368;52.156;20.788;2023-06-05T02:45:41;101085.07;;;10.20;83.49
38612;BME280;24368;52.156;20.788;2023-06-05T02:50:42;101083.92;;;10.18;83.92
38612;BME280;24368;52.156;20.788;2023-06-05T02:55:43;101084.27;;;10.14;83.88
38612;BME280;24368;52.156;20.788;2023-06-05T03:00:44;101087.23;;;10.19;84.33
38612;BME280;24368;52.156;20.788;2023-06-05T03:05:46;101083.77;;;10.29;83.89
38612;BME280;24368;52.156;20.788;2023-06-05T03:10:48;101082.38;;;10.24;84.04
38612;BME280;24368;52.156;20.788;2023-06-05T03:15:49;101085.41;;;10.24;84.78
38612;BME280;24368;52.156;20.788;2023-06-05T03:20:54;101089.67;;;10.32;84.37
38612;BME280;24368;52.156;20.788;2023-06-05T03:25:56;101089.46;;;10.36;84.61
38612;BME280;24368;52.156;20.788;2023-06-05T03:30:58;101085.08;;;10.38;85.08
38612;BME280;24368;52.156;20.788;2023-06-05T03:35:59;101088.77;;;10.36;85.61
38612;BME280;24368;52.156;20.788;2023-06-05T03:41:00;101092.09;;;10.42;85.08
38612;BME280;24368;52.156;20.788;2023-06-05T03:46:02;101094.20;;;10.46;85.65
38612;BME280;24368;52.156;20.788;2023-06-05T03:51:03;101095.88;;;10.55;85.69
38612;BME280;24368;52.156;20.788;2023-06-05T03:56:06;101093.35;;;10.58;84.69
38612;BME280;24368;52.156;20.788;2023-06-05T04:01:07;101098.91;;;10.75;83.84
38612;BME280;24368;52.156;20.788;2023-06-05T04:06:09;101092.33;;;10.97;82.51
38612;BME280;24368;52.156;20.788;2023-06-05T04:11:10;101089.39;;;11.16;80.79
38612;BME280;24368;52.156;20.788;2023-06-05T04:16:11;101091.41;;;11.30;79.66
38612;BME280;24368;52.156;20.788;2023-06-05T04:21:12;101096.61;;;11.41;78.80
38612;BME280;24368;52.156;20.788;2023-06-05T04:26:13;101102.69;;;11.55;78.66
38612;BME280;24368;52.156;20.788;2023-06-05T04:31:16;101102.42;;;11.79;77.38
38612;BME280;24368;52.156;20.788;2023-06-05T04:36:18;101106.17;;;12.01;75.16
38612;BME280;24368;52.156;20.788;2023-06-05T04:41:19;101108.16;;;12.11;75.25
38612;BME280;24368;52.156;20.788;2023-06-05T04:46:22;101114.54;;;12.25;74.60
38612;BME280;24368;52.156;20.788;2023-06-05T04:51:24;101110.59;;;12.40;74.13
38612;BME280;24368;52.156;20.788;2023-06-05T04:56:25;101109.70;;;12.53;73.63
38612;BME280;24368;52.156;20.788;2023-06-05T05:01:26;101109.31;;;12.72;72.38
38612;BME280;24368;52.156;20.788;2023-06-05T05:06:28;101113.25;;;12.84;72.15
38612;BME280;24368;52.156;20.788;2023-06-05T05:11:29;101113.79;;;13.00;70.57
38612;BME280;24368;52.156;20.788;2023-06-05T05:16:30;101117.67;;;13.11;69.70
38612;BME280;24368;52.156;20.788;2023-06-05T05:21:31;101117.77;;;13.35;66.45
38612;BME280;24368;52.156;20.788;2023-06-05T05:26:32;101115.23;;;13.66;64.92
38612;BME280;24368;52.156;20.788;2023-06-05T05:31:34;101109.88;;;13.83;65.04
38612;BME280;24368;52.156;20.788;2023-06-05T05:36:35;101116.09;;;13.80;65.96
38612;BME280;24368;52.156;20.788;2023-06-05T05:41:39;101110.55;;;13.87;66.12
38612;BME280;24368;52.156;20.788;2023-06-05T05:46:41;101110.39;;;14.04;64.87
38612;BME280;24368;52.156;20.788;2023-06-05T05:51:42;101112.18;;;14.11;64.65
38612;BME280;24368;52.156;20.788;2023-06-05T05:56:43;101111.36;;;14.41;63.68
38612;BME280;24368;52.156;20.788;2023-06-05T06:01:44;101111.91;;;14.68;62.90
38612;BME280;24368;52.156;20.788;2023-06-05T06:06:46;101118.27;;;14.88;60.52
38612;BME280;24368;52.156;20.788;2023-06-05T06:11:53;101117.09;;;14.94;59.96
38612;BME280;24368;52.156;20.788;2023-06-05T06:16:57;101121.05;;;14.97;61.29
38612;BME280;24368;52.156;20.788;2023-06-05T06:21:59;101119.62;;;15.16;60.07
38612;BME280;24368;52.156;20.788;2023-06-05T06:27:00;101123.86;;;15.40;59.13
38612;BME280;24368;52.156;20.788;2023-06-05T06:32:01;101123.95;;;15.51;59.61
38612;BME280;24368;52.156;20.788;2023-06-05T06:37:02;101123.58;;;15.54;59.27
38612;BME280;24368;52.156;20.788;2023-06-05T06:42:04;101121.60;;;15.76;58.25
38612;BME280;24368;52.156;20.788;2023-06-05T06:47:06;101118.11;;;15.91;56.42
38612;BME280;24368;52.156;20.788;2023-06-05T06:52:07;101119.08;;;15.94;56.55
38612;BME280;24368;52.156;20.788;2023-06-05T06:57:08;101119.59;;;16.07;55.46
38612;BME280;24368;52.156;20.788;2023-06-05T07:02:14;101116.32;;;16.22;54.12
38612;BME280;24368;52.156;20.788;2023-06-05T07:07:17;101115.54;;;16.16;53.83
38612;BME280;24368;52.156;20.788;2023-06-05T07:12:19;101120.54;;;16.35;51.51
38612;BME280;24368;52.156;20.788;2023-06-05T07:17:21;101123.72;;;16.69;49.26
38612;BME280;24368;52.156;20.788;2023-06-05T07:22:23;101123.91;;;16.71;48.34
38612;BME280;24368;52.156;20.788;2023-06-05T07:27:27;101127.24;;;16.82;46.21
38612;BME280;24368;52.156;20.788;2023-06-05T07:32:29;101125.02;;;16.94;47.30
38612;BME280;24368;52.156;20.788;2023-06-05T07:37:31;101127.58;;;17.04;47.97
38612;BME280;24368;52.156;20.788;2023-06-05T07:42:32;101129.64;;;17.14;47.24
38612;BME280;24368;52.156;20.788;2023-06-05T07:47:35;101123.97;;;17.17;47.35
38612;BME280;24368;52.156;20.788;2023-06-05T07:52:36;101126.11;;;17.35;45.24
38612;BME280;24368;52.156;20.788;2023-06-05T07:57:38;101121.32;;;17.49;44.48
38612;BME280;24368;52.156;20.788;2023-06-05T08:02:39;101116.23;;;17.54;41.79
38612;BME280;24368;52.156;20.788;2023-06-05T08:07:41;101117.91;;;17.56;41.53
38612;BME280;24368;52.156;20.788;2023-06-05T08:12:42;101116.74;;;17.75;41.49
38612;BME280;24368;52.156;20.788;2023-06-05T08:17:44;101118.19;;;17.78;41.55
38612;BME280;24368;52.156;20.788;2023-06-05T08:22:45;101123.39;;;18.01;40.80
38612;BME280;24368;52.156;20.788;2023-06-05T08:27:46;101123.23;;;17.87;40.78
38612;BME280;24368;52.156;20.788;2023-06-05T08:32:47;101114.16;;;17.88;39.32
38612;BME280;24368;52.156;20.788;2023-06-05T08:37:48;101114.90;;;17.97;38.37
38612;BME280;24368;52.156;20.788;2023-06-05T08:42:49;101116.17;;;18.12;39.52
38612;BME280;24368;52.156;20.788;2023-06-05T08:47:50;101115.20;;;18.24;40.03
38612;BME280;24368;52.156;20.788;2023-06-05T08:52:52;101108.68;;;18.26;39.33
38612;BME280;24368;52.156;20.788;2023-06-05T08:57:57;101107.70;;;18.33;39.31
38612;BME280;24368;52.156;20.788;2023-06-05T09:02:58;101107.88;;;18.80;38.09
38612;BME280;24368;52.156;20.788;2023-06-05T09:08:01;101102.46;;;18.80;37.35
38612;BME280;24368;52.156;20.788;2023-06-05T09:13:03;101104.85;;;18.83;38.16
38612;BME280;24368;52.156;20.788;2023-06-05T09:23:26;101092.44;;;18.94;39.40
38612;BME280;24368;52.156;20.788;2023-06-05T09:28:28;101090.35;;;19.09;39.12
38612;BME280;24368;52.156;20.788;2023-06-05T09:33:33;101092.79;;;19.37;39.78
38612;BME280;24368;52.156;20.788;2023-06-05T09:38:38;101089.89;;;19.40;39.70
38612;BME280;24368;52.156;20.788;2023-06-05T09:43:39;101087.70;;;19.46;39.03
38612;BME280;24368;52.156;20.788;2023-06-05T09:48:42;101087.19;;;19.54;37.52
38612;BME280;24368;52.156;20.788;2023-06-05T09:53:50;101087.61;;;19.64;37.34
38612;BME280;24368;52.156;20.788;2023-06-05T09:58:52;101082.21;;;19.94;36.74
38612;BME280;24368;52.156;20.788;2023-06-05T10:04:01;101074.99;;;19.96;36.65
38612;BME280;24368;52.156;20.788;2023-06-05T10:09:06;101077.33;;;20.14;36.24
38612;BME280;24368;52.156;20.788;2023-06-05T10:14:09;101071.99;;;20.16;35.97
38612;BME280;24368;52.156;20.788;2023-06-05T10:19:11;101063.70;;;20.37;38.01
38612;BME280;24368;52.156;20.788;2023-06-05T10:24:23;101056.99;;;20.60;36.23
38612;BME280;24368;52.156;20.788;2023-06-05T10:40:22;101060.60;;;21.22;37.16
38612;BME280;24368;52.156;20.788;2023-06-05T10:45:30;101053.83;;;21.35;36.46
38612;BME280;24368;52.156;20.788;2023-06-05T10:50:32;101050.39;;;21.42;35.74
38612;BME280;24368;52.156;20.788;2023-06-05T10:55:42;101046.21;;;21.69;34.53
38612;BME280;24368;52.156;20.788;2023-06-05T11:01:15;101034.55;;;21.81;33.82
38612;BME280;24368;52.156;20.788;2023-06-05T11:06:17;101036.09;;;21.79;34.60
38612;BME280;24368;52.156;20.788;2023-06-05T11:11:18;101035.48;;;22.00;33.30
38612;BME280;24368;52.156;20.788;2023-06-05T11:22:06;101027.90;;;22.59;33.43
38612;BME280;24368;52.156;20.788;2023-06-05T11:27:41;101013.20;;;22.68;31.52
38612;BME280;24368;52.156;20.788;2023-06-05T11:32:44;101017.00;;;23.12;31.30
38612;BME280;24368;52.156;20.788;2023-06-05T11:37:45;101017.10;;;23.26;30.62
38612;BME280;24368;52.156;20.788;2023-06-05T11:42:47;101020.68;;;23.58;30.70
38612;BME280;24368;52.156;20.788;2023-06-05T11:47:48;101013.32;;;23.65;31.36
38612;BME280;24368;52.156;20.788;2023-06-05T11:52:49;101007.36;;;23.83;31.63
38612;BME280;24368;52.156;20.788;2023-06-05T11:57:50;100997.05;;;23.88;31.47
38612;BME280;24368;52.156;20.788;2023-06-05T12:02:52;100995.42;;;23.81;30.74
38612;BME280;24368;52.156;20.788;2023-06-05T12:07:53;100999.99;;;23.43;30.58
38612;BME280;24368;52.156;20.788;2023-06-05T12:12:56;100995.80;;;23.31;31.54
38612;BME280;24368;52.156;20.788;2023-06-05T12:17:57;100989.05;;;23.43;30.58
38612;BME280;24368;52.156;20.788;2023-06-05T12:23:00;100988.23;;;23.49;32.06
38612;BME280;24368;52.156;20.788;2023-06-05T12:28:01;100979.28;;;23.05;32.58
38612;BME280;24368;52.156;20.788;2023-06-05T12:33:19;100983.91;;;23.03;32.28
38612;BME280;24368;52.156;20.788;2023-06-05T12:38:20;100976.48;;;22.73;31.84
38612;BME280;24368;52.156;20.788;2023-06-05T12:43:22;100971.91;;;22.68;32.91
38612;BME280;24368;52.156;20.788;2023-06-05T12:48:23;100971.60;;;23.04;33.94
38612;BME280;24368;52.156;20.788;2023-06-05T12:53:25;100969.95;;;23.15;31.77
38612;BME280;24368;52.156;20.788;2023-06-05T12:58:26;100959.04;;;22.96;32.13
38612;BME280;24368;52.156;20.788;2023-06-05T13:03:27;100962.73;;;22.95;31.51
38612;BME280;24368;52.156;20.788;2023-06-05T13:08:29;100956.02;;;22.82;31.56
38612;BME280;24368;52.156;20.788;2023-06-05T13:13:31;100946.41;;;22.85;32.32
38612;BME280;24368;52.156;20.788;2023-06-05T13:18:34;100939.85;;;22.81;31.38
38612;BME280;24368;52.156;20.788;2023-06-05T13:23:36;100936.00;;;22.92;32.06
38612;BME280;24368;52.156;20.788;2023-06-05T13:28:37;100933.02;;;22.98;30.98
38612;BME280;24368;52.156;20.788;2023-06-05T13:33:38;100922.33;;;23.01;31.44
38612;BME280;24368;52.156;20.788;2023-06-05T13:38:40;100915.10;;;23.11;31.15
38612;BME280;24368;52.156;20.788;2023-06-05T13:43:41;100917.23;;;23.12;30.80
38612;BME280;24368;52.156;20.788;2023-06-05T13:48:42;100912.11;;;23.31;30.95
38612;BME280;24368;52.156;20.788;2023-06-05T13:53:43;100905.36;;;23.33;32.40
38612;BME280;24368;52.156;20.788;2023-06-05T13:58:44;100906.04;;;23.39;31.60
38612;BME280;24368;52.156;20.788;2023-06-05T14:03:45;100898.35;;;23.36;31.79
38612;BME280;24368;52.156;20.788;2023-06-05T14:08:48;100899.55;;;23.58;32.64
38612;BME280;24368;52.156;20.788;2023-06-05T14:13:49;100894.86;;;23.73;30.68
38612;BME280;24368;52.156;20.788;2023-06-05T14:18:50;100892.33;;;23.59;30.31
38612;BME280;24368;52.156;20.788;2023-06-05T14:23:52;100888.05;;;23.65;30.74
38612;BME280;24368;52.156;20.788;2023-06-05T14:28:53;100893.19;;;23.64;29.35
38612;BME280;24368;52.156;20.788;2023-06-05T14:33:54;100888.77;;;23.50;29.68
38612;BME280;24368;52.156;20.788;2023-06-05T14:38:55;100883.39;;;23.45;30.26
38612;BME280;24368;52.156;20.788;2023-06-05T14:43:56;100880.18;;;23.49;30.40
38612;BME280;24368;52.156;20.788;2023-06-05T14:48:57;100875.67;;;23.48;29.91
38612;BME280;24368;52.156;20.788;2023-06-05T14:53:58;100870.16;;;23.37;29.56
38612;BME280;24368;52.156;20.788;2023-06-05T14:59:00;100866.19;;;23.56;29.99
38612;BME280;24368;52.156;20.788;2023-06-05T15:04:01;100867.02;;;23.49;30.13
38612;BME280;24368;52.156;20.788;2023-06-05T15:09:02;100867.45;;;23.48;29.59
38612;BME280;24368;52.156;20.788;2023-06-05T15:14:04;100865.26;;;23.48;29.33
38612;BME280;24368;52.156;20.788;2023-06-05T15:19:06;100856.86;;;23.60;29.67
38612;BME280;24368;52.156;20.788;2023-06-05T15:24:07;100852.75;;;23.66;28.90
38612;BME280;24368;52.156;20.788;2023-06-05T15:29:08;100849.41;;;23.77;29.34
38612;BME280;24368;52.156;20.788;2023-06-05T15:34:09;100847.55;;;23.97;29.72
38612;BME280;24368;52.156;20.788;2023-06-05T15:39:10;100840.27;;;24.06;30.09
38612;BME280;24368;52.156;20.788;2023-06-05T15:44:14;100842.50;;;24.10;29.22
38612;BME280;24368;52.156;20.788;2023-06-05T15:49:15;100843.56;;;24.06;29.45
38612;BME280;24368;52.156;20.788;2023-06-05T15:54:17;100842.59;;;23.79;29.59
38612;BME280;24368;52.156;20.788;2023-06-05T15:59:18;100831.66;;;23.47;29.80
38612;BME280;24368;52.156;20.788;2023-06-05T16:04:19;100830.48;;;23.28;30.29
38612;BME280;24368;52.156;20.788;2023-06-05T16:09:20;100830.84;;;23.22;30.85
38612;BME280;24368;52.156;20.788;2023-06-05T16:14:22;100829.45;;;23.09;30.41
38612;BME280;24368;52.156;20.788;2023-06-05T16:19:23;100829.14;;;23.04;31.43
38612;BME280;24368;52.156;20.788;2023-06-05T16:24:24;100831.02;;;22.90;30.69
38612;BME280;24368;52.156;20.788;2023-06-05T16:29:27;100832.48;;;22.77;31.14
38612;BME280;24368;52.156;20.788;2023-06-05T16:34:28;100828.25;;;22.75;30.98
38612;BME280;24368;52.156;20.788;2023-06-05T16:39:29;100825.37;;;22.69;30.75
38612;BME280;24368;52.156;20.788;2023-06-05T16:44:33;100826.66;;;22.63;31.36
38612;BME280;24368;52.156;20.788;2023-06-05T16:49:36;100821.96;;;22.57;31.27
38612;BME280;24368;52.156;20.788;2023-06-05T16:54:37;100821.39;;;22.52;31.57
38612;BME280;24368;52.156;20.788;2023-06-05T16:59:38;100818.55;;;22.41;31.67
38612;BME280;24368;52.156;20.788;2023-06-05T17:04:40;100816.34;;;22.31;31.28
38612;BME280;24368;52.156;20.788;2023-06-05T17:09:41;100817.64;;;22.26;31.69
38612;BME280;24368;52.156;20.788;2023-06-05T17:14:42;100819.71;;;22.20;32.17
38612;BME280;24368;52.156;20.788;2023-06-05T17:19:43;100817.36;;;22.18;32.29
38612;BME280;24368;52.156;20.788;2023-06-05T17:24:45;100819.45;;;22.16;32.41
38612;BME280;24368;52.156;20.788;2023-06-05T17:29:46;100818.92;;;22.12;32.89
38612;BME280;24368;52.156;20.788;2023-06-05T17:34:48;100818.36;;;22.08;33.24
38612;BME280;24368;52.156;20.788;2023-06-05T17:39:49;100823.64;;;21.98;33.75
38612;BME280;24368;52.156;20.788;2023-06-05T17:44:51;100819.13;;;21.86;33.58
38612;BME280;24368;52.156;20.788;2023-06-05T17:49:52;100822.83;;;21.79;33.68
38612;BME280;24368;52.156;20.788;2023-06-05T17:54:54;100823.83;;;21.69;34.64
38612;BME280;24368;52.156;20.788;2023-06-05T17:59:56;100827.39;;;21.62;35.45
38612;BME280;24368;52.156;20.788;2023-06-05T18:04:57;100824.70;;;21.52;36.17
38612;BME280;24368;52.156;20.788;2023-06-05T18:09:59;100821.33;;;21.40;36.15
38612;BME280;24368;52.156;20.788;2023-06-05T18:15:02;100817.75;;;21.35;36.23
38612;BME280;24368;52.156;20.788;2023-06-05T18:20:04;100824.48;;;21.27;37.00
38612;BME280;24368;52.156;20.788;2023-06-05T18:25:07;100823.14;;;21.13;37.24
38612;BME280;24368;52.156;20.788;2023-06-05T18:30:09;100827.62;;;20.94;38.37
38612;BME280;24368;52.156;20.788;2023-06-05T18:35:10;100825.66;;;20.82;39.62
38612;BME280;24368;52.156;20.788;2023-06-05T18:40:12;100833.44;;;20.60;41.80
38612;BME280;24368;52.156;20.788;2023-06-05T18:45:15;100839.80;;;20.36;42.81
38612;BME280;24368;52.156;20.788;2023-06-05T18:50:16;100845.85;;;20.16;44.12
38612;BME280;24368;52.156;20.788;2023-06-05T18:55:19;100858.04;;;19.92;44.46
38612;BME280;24368;52.156;20.788;2023-06-05T19:00:20;100864.30;;;19.80;44.65
38612;BME280;24368;52.156;20.788;2023-06-05T19:05:22;100869.80;;;19.65;44.89
38612;BME280;24368;52.156;20.788;2023-06-05T19:10:23;100870.05;;;19.50;45.68
38612;BME280;24368;52.156;20.788;2023-06-05T19:15:26;100870.67;;;19.21;46.68
38612;BME280;24368;52.156;20.788;2023-06-05T19:20:28;100873.33;;;19.07;47.13
38612;BME280;24368;52.156;20.788;2023-06-05T19:25:30;100880.20;;;19.00;44.89
38612;BME280;24368;52.156;20.788;2023-06-05T19:30:34;100879.95;;;19.37;43.34
38612;BME280;24368;52.156;20.788;2023-06-05T19:35:37;100878.96;;;19.36;42.77
38612;BME280;24368;52.156;20.788;2023-06-05T19:40:40;100879.30;;;19.08;46.24
38612;BME280;24368;52.156;20.788;2023-06-05T19:45:41;100879.98;;;18.75;47.51
38612;BME280;24368;52.156;20.788;2023-06-05T19:50:43;100876.87;;;18.60;48.02
38612;BME280;24368;52.156;20.788;2023-06-05T19:55:46;100877.98;;;18.44;49.18
38612;BME280;24368;52.156;20.788;2023-06-05T20:00:47;100875.01;;;18.30;49.12
38612;BME280;24368;52.156;20.788;2023-06-05T20:05:48;100875.01;;;18.09;49.91
38612;BME280;24368;52.156;20.788;2023-06-05T20:10:50;100874.24;;;18.02;50.32
38612;BME280;24368;52.156;20.788;2023-06-05T20:15:51;100876.02;;;17.78;50.72
38612;BME280;24368;52.156;20.788;2023-06-05T20:20:54;100877.63;;;17.59;51.18
38612;BME280;24368;52.156;20.788;2023-06-05T20:25:58;100876.92;;;17.65;50.94
38612;BME280;24368;52.156;20.788;2023-06-05T20:31:00;100879.34;;;17.72;49.34
38612;BME280;24368;52.156;20.788;2023-06-05T20:36:03;100876.02;;;17.65;50.33
38612;BME280;24368;52.156;20.788;2023-06-05T20:41:10;100873.03;;;17.66;50.10
38612;BME280;24368;52.156;20.788;2023-06-05T20:46:15;100876.40;;;17.63;47.98
38612;BME280;24368;52.156;20.788;2023-06-05T20:51:22;100881.13;;;17.74;47.71
38612;BME280;24368;52.156;20.788;2023-06-05T20:56:27;100881.10;;;17.83;46.00
38612;BME280;24368;52.156;20.788;2023-06-05T21:01:30;100879.61;;;17.63;50.13
38612;BME280;24368;52.156;20.788;2023-06-05T21:06:34;100880.09;;;17.35;51.61
38612;BME280;24368;52.156;20.788;2023-06-05T21:11:36;100879.76;;;17.09;53.05
38612;BME280;24368;52.156;20.788;2023-06-05T21:16:38;100884.79;;;16.80;54.21
38612;BME280;24368;52.156;20.788;2023-06-05T21:21:39;100881.63;;;16.77;53.86
38612;BME280;24368;52.156;20.788;2023-06-05T21:26:40;100885.95;;;16.77;53.80
38612;BME280;24368;52.156;20.788;2023-06-05T21:31:45;100888.44;;;16.76;54.14
38612;BME280;24368;52.156;20.788;2023-06-05T21:36:46;100891.90;;;16.57;55.05
38612;BME280;24368;52.156;20.788;2023-06-05T21:41:47;100888.92;;;16.37;55.22
38612;BME280;24368;52.156;20.788;2023-06-05T21:46:51;100893.17;;;16.61;53.94
38612;BME280;24368;52.156;20.788;2023-06-05T21:51:52;100895.05;;;16.73;51.56
38612;BME280;24368;52.156;20.788;2023-06-05T21:56:53;100894.30;;;16.71;53.05
38612;BME280;24368;52.156;20.788;2023-06-05T22:01:54;100890.96;;;16.70;51.88
38612;BME280;24368;52.156;20.788;2023-06-05T22:06:55;100890.59;;;16.73;51.83
38612;BME280;24368;52.156;20.788;2023-06-05T22:11:56;100891.01;;;16.86;51.40
38612;BME280;24368;52.156;20.788;2023-06-05T22:16:58;100887.65;;;16.69;53.65
38612;BME280;24368;52.156;20.788;2023-06-05T22:22:00;100887.16;;;16.26;56.11
38612;BME280;24368;52.156;20.788;2023-06-05T22:27:01;100886.81;;;15.86;58.07
38612;BME280;24368;52.156;20.788;2023-06-05T22:32:02;100883.92;;;15.96;58.83
38612;BME280;24368;52.156;20.788;2023-06-05T22:37:03;100880.23;;;16.08;59.03
38612;BME280;24368;52.156;20.788;2023-06-05T22:42:06;100882.27;;;16.02;59.81
38612;BME280;24368;52.156;20.788;2023-06-05T22:47:07;100880.42;;;16.00;59.98
38612;BME280;24368;52.156;20.788;2023-06-05T22:52:10;100876.70;;;15.87;61.30
38612;BME280;24368;52.156;20.788;2023-06-05T22:57:16;100873.27;;;15.71;62.19
38612;BME280;24368;52.156;20.788;2023-06-05T23:02:17;100876.70;;;15.72;62.43
38612;BME280;24368;52.156;20.788;2023-06-05T23:07:18;100871.27;;;15.62;63.00
38612;BME280;24368;52.156;20.788;2023-06-05T23:12:19;100867.14;;;15.65;62.83
38612;BME280;24368;52.156;20.788;2023-06-05T23:17:21;100876.84;;;15.58;63.23
38612;BME280;24368;52.156;20.788;2023-06-05T23:22:22;100873.16;;;15.16;64.57
38612;BME280;24368;52.156;20.788;2023-06-05T23:27:23;100876.63;;;15.04;65.68
38612;BME280;24368;52.156;20.788;2023-06-05T23:32:25;100878.48;;;15.18;64.41
38612;BME280;24368;52.156;20.788;2023-06-05T23:37:26;100877.89;;;14.90;65.28
38612;BME280;24368;52.156;20.788;2023-06-05T23:42:27;100881.70;;;14.76;66.59
38612;BME280;24368;52.156;20.788;2023-06-05T23:47:29;100882.16;;;14.80;66.97
38612;BME280;24368;52.156;20.788;2023-06-05T23:52:31;100884.49;;;14.77;67.13
38612;BME280;24368;52.156;20.788;2023-06-05T23:57:32;100886.60;;;14.67;67.19
